Date,TemperatureHighF,TemperatureAvgF,TemperatureLowF,DewpointHighF,DewpointAvgF,DewpointLowF,HumidityHigh,HumidityAvg,HumidityLow,PressureMaxIn,PressureMinIn,WindSpeedMaxMPH,WindSpeedAvgMPH,GustSpeedMaxMPH,PrecipitationSumIn
2013-1-1,36.7,32.0,19.6,23.3,14.3,1.1,60,48,37,29.91,29.70,30,11,33,0.00
2013-1-2,29.1,20.6,10.2,12.7,4.8,-7.5,59,50,44,30.08,29.88,29,11,32,0.00
2013-1-3,24.8,15.3,5.9,8.1,-4.1,-9.1,53,42,26,30.11,29.98,26,10,30,0.00
2013-1-4,37.9,31.3,22.8,21.3,16.9,7.9,66,55,44,29.98,29.80,25,9,28,0.00
2013-1-5,41.4,34.7,28.4,22.2,17.3,12.6,63,49,32,30.26,29.84,24,7,26,0.00
2013-1-6,43.2,35.7,27.9,27.9,23.3,16.8,80,61,46,30.22,29.94,24,6,24,0.00
2013-1-7,38.1,34.8,29.5,27.8,24.7,20.6,79,66,50,30.41,29.95,19,7,21,0.00
2013-1-8,46.8,39.6,33.1,29.3,25.9,24.0,82,59,41,30.37,30.26,28,8,28,0.00
2013-1-9,45.5,38.5,29.3,33.5,27.1,21.3,75,64,43,30.40,29.97,27,7,29,0.00
2013-1-10,46.4,42.1,34.5,24.9,21.1,18.8,57,43,35,30.53,30.02,38,15,38,0.00
2013-1-11,41.2,36.8,30.0,36.1,27.1,20.5,85,68,57,30.52,30.24,22,7,24,0.00
2013-1-12,45.3,42.6,40.1,40.6,38.6,36.1,90,85,80,30.24,30.13,16,5,24,0.00
2013-1-13,49.5,45.2,43.0,46.3,42.4,40.3,91,90,86,30.16,29.99,13,3,13,0.00
2013-1-14,61.9,52.5,42.1,49.9,39.8,23.2,90,65,36,30.25,29.86,23,8,24,0.00
2013-1-15,42.1,38.9,35.2,25.1,22.4,20.1,57,51,45,30.31,30.21,19,7,20,0.00
2013-1-16,35.8,33.3,30.4,31.1,27.9,19.6,90,82,52,30.24,29.81,44,6,59,0.00
2013-1-17,41.9,35.6,29.5,30.8,24.0,7.6,86,64,39,30.09,29.83,23,9,25,0.00
2013-1-18,29.5,22.8,17.2,7.6,-2.1,-8.7,42,33,25,30.44,30.05,28,9,32,0.00
2013-1-19,48.9,38.9,25.3,32.0,21.9,5.1,70,51,35,30.39,29.90,26,7,29,0.00
2013-1-20,54.0,42.6,29.7,32.4,23.4,6.8,67,48,28,29.91,29.53,33,12,38,0.00
2013-1-21,29.5,25.6,22.3,18.9,6.9,-0.4,82,47,32,30.10,29.78,33,7,33,0.00
2013-1-22,24.8,21.0,14.0,18.5,6.3,-3.7,83,55,33,30.06,29.74,27,11,31,0.00
2013-1-23,15.6,11.3,6.4,0.1,-11.5,-16.6,53,35,24,30.12,30.04,29,11,31,0.00
2013-1-24,18.7,10.7,2.8,-9.4,-13.5,-17.0,50,33,23,30.19,30.02,39,14,39,0.00
2013-1-25,24.4,16.7,8.8,6.6,-10.3,-14.0,60,29,18,30.27,30.06,28,10,30,0.00
2013-1-26,23.7,17.7,12.6,9.9,-0.0,-11.7,77,49,24,30.21,29.99,32,10,33,0.00
2013-1-27,30.2,21.2,13.8,0.6,-3.0,-6.7,54,35,22,30.47,30.20,29,11,31,0.00
2013-1-28,32.7,25.8,18.0,29.8,10.4,-3.6,89,55,28,30.45,30.02,28,6,28,0.04
2013-1-29,36.5,30.8,25.9,33.3,26.0,22.1,89,82,75,30.20,30.02,35,7,35,0.00
2013-1-30,57.9,47.1,36.5,52.6,43.4,33.3,90,87,79,30.17,29.50,21,6,21,0.00
2013-1-31,58.8,46.5,31.3,54.1,33.7,13.2,89,63,36,29.58,28.98,38,15,43,0.43
2013-2-1,32.7,29.1,23.2,14.9,6.0,0.8,51,37,29,30.06,29.57,32,14,32,0.00
2013-2-2,30.0,24.9,18.1,11.4,4.5,-1.2,50,41,32,30.24,30.05,21,8,22,0.00
2013-2-3,27.5,25.0,22.6,18.9,16.7,9.1,82,71,46,30.05,29.71,18,8,21,0.00
2013-2-4,29.8,25.4,21.7,18.3,7.8,1.1,78,49,32,29.93,29.70,32,14,34,0.00
2013-2-5,29.5,25.4,21.6,25.4,10.0,2.9,88,53,38,30.03,29.93,18,7,21,0.00
2013-2-6,38.3,30.8,25.5,25.6,17.2,3.0,88,60,33,30.28,29.92,28,10,31,0.00
2013-2-7,29.5,24.1,18.3,18.5,0.1,-6.6,64,35,22,30.53,30.28,24,8,26,0.00
2013-2-8,34.2,31.2,22.6,30.8,26.3,18.1,91,82,63,30.50,29.56,43,18,46,0.04
2013-2-9,22.6,18.1,14.4,19.6,12.8,5.1,88,80,66,30.15,29.49,30,14,30,0.00
2013-2-10,36.7,23.9,11.8,19.6,7.3,0.3,66,50,26,30.38,30.14,25,8,25,0.00
2013-2-11,44.2,35.9,26.4,41.8,29.2,9.0,91,78,47,30.35,29.60,21,6,22,0.20
2013-2-12,44.6,39.5,36.3,36.5,26.6,23.0,90,61,45,29.87,29.59,32,12,32,0.00
2013-2-13,43.3,36.5,30.9,28.5,23.3,19.0,75,59,42,29.87,29.69,17,6,22,0.00
2013-2-14,42.4,36.5,32.2,28.1,22.0,14.8,74,56,36,30.00,29.70,15,6,16,0.00
2013-2-15,47.7,39.0,33.3,34.8,30.9,23.4,87,73,51,30.01,29.92,11,4,12,0.00
2013-2-16,37.9,34.8,32.5,32.7,27.4,16.0,88,74,51,29.95,29.70,50,6,61,0.00
2013-2-17,32.4,22.8,17.1,17.7,9.0,-1.1,83,57,38,29.70,29.31,43,19,47,0.00
2013-2-18,31.6,23.3,15.6,1.1,-1.6,-4.8,46,34,21,30.14,29.61,40,18,43,0.00
2013-2-19,43.7,35.5,24.6,40.2,21.4,-1.1,91,59,31,30.15,29.58,47,9,47,0.28
2013-2-20,42.4,33.6,27.3,40.0,19.1,8.9,91,56,38,29.76,29.53,32,15,33,0.00
2013-2-21,31.8,27.7,25.2,13.6,10.5,7.1,57,48,38,30.15,29.74,30,14,32,0.00
2013-2-22,37.2,32.1,25.3,24.6,19.2,13.5,67,59,49,30.38,30.15,22,8,25,0.00
2013-2-23,37.6,36.5,34.3,33.9,28.5,23.2,87,73,62,30.34,29.93,28,9,35,0.08
2013-2-24,38.8,35.2,30.4,36.2,32.3,28.1,91,89,86,29.93,29.68,57,9,57,0.35
2013-2-25,40.8,34.4,29.7,30.2,27.3,22.6,91,76,52,30.25,29.88,13,4,14,0.00
2013-2-26,41.2,36.9,31.3,32.4,29.6,25.9,88,75,60,30.35,30.17,21,6,22,0.00
2013-2-27,41.9,40.5,38.8,39.5,36.8,31.3,91,87,73,30.18,29.54,45,18,48,1.10
2013-2-28,43.0,38.2,34.2,38.2,33.3,30.5,91,82,67,29.65,29.53,13,4,14,0.00
2013-3-1,40.1,37.4,35.6,32.4,28.3,25.0,83,70,58,29.67,29.53,15,6,15,0.00
2013-3-2,41.5,37.1,32.4,30.1,25.3,22.8,70,62,53,29.68,29.62,18,6,18,0.00
2013-3-3,40.8,35.9,31.8,30.8,26.4,23.0,78,68,60,29.64,29.56,23,8,24,0.00
2013-3-4,38.8,34.3,31.1,27.0,21.5,19.0,81,60,47,29.71,29.56,34,16,34,0.00
2013-3-5,42.6,36.8,31.1,33.0,25.8,19.5,81,65,52,30.07,29.71,26,8,27,0.00
2013-3-6,40.1,38.1,35.4,34.0,31.0,26.4,85,76,60,30.12,30.05,37,14,46,0.12
2013-3-7,37.6,33.2,31.5,30.9,29.6,26.2,91,87,64,30.07,29.96,52,14,55,0.00
2013-3-8,42.6,34.9,30.4,29.7,26.4,20.7,91,74,42,30.14,29.91,53,10,69,0.00
2013-3-9,40.5,36.2,30.7,29.7,25.1,19.9,86,65,48,30.35,30.13,19,7,21,0.00
2013-3-10,38.5,34.7,28.9,31.4,28.1,24.9,86,77,67,30.42,30.32,16,7,8,0.00
2013-3-11,45.0,40.4,36.1,38.1,34.0,30.4,88,78,63,30.34,30.16,41,5,41,0.00
2013-3-12,50.4,43.3,40.8,48.1,40.2,37.3,92,89,86,30.18,29.74,55,9,55,0.08
2013-3-13,51.8,45.5,38.5,47.9,29.3,16.0,92,56,30,29.78,29.69,48,12,49,0.00
2013-3-14,38.5,32.9,23.7,21.8,13.2,3.7,56,44,34,29.81,29.68,35,14,35,0.00
2013-3-15,41.0,30.0,19.8,24.4,8.9,1.9,62,42,22,29.85,29.63,29,12,29,0.00
2013-3-16,39.6,33.9,29.1,23.7,12.2,3.2,61,41,23,29.88,29.65,25,7,33,0.00
2013-3-17,36.9,31.3,25.9,12.3,6.6,-0.8,51,36,23,30.32,29.88,33,9,33,0.00
2013-3-18,34.0,27.8,19.2,27.0,9.2,-3.9,87,46,31,30.46,30.26,19,8,21,0.00
2013-3-19,36.7,33.2,27.1,34.0,30.5,23.0,92,90,84,30.26,29.58,124,18,132,1.10
2013-3-20,38.1,31.9,25.5,23.0,18.5,15.4,84,59,40,29.81,29.66,86,12,86,0.00
2013-3-21,34.7,31.4,29.3,28.6,20.3,12.7,89,64,44,29.82,29.60,15,5,15,0.00
2013-3-22,39.7,34.0,30.0,26.3,17.8,11.9,84,52,34,29.73,29.59,26,10,29,0.00
2013-3-23,43.5,36.1,28.9,19.5,16.4,13.2,64,46,31,29.77,29.62,32,16,35,0.00
2013-3-24,46.9,38.1,32.2,31.4,22.5,16.9,76,54,34,29.82,29.74,22,8,24,0.00
2013-3-25,43.0,38.1,33.4,32.8,28.9,23.3,78,69,61,29.78,29.54,19,7,21,0.00
2013-3-26,48.0,40.1,33.4,31.6,23.6,16.0,85,54,29,29.77,29.53,26,7,43,0.00
2013-3-27,53.2,43.6,35.4,30.9,22.0,18.7,67,43,27,29.87,29.74,29,9,29,0.00
2013-3-28,47.1,42.0,37.4,33.9,30.4,24.4,85,64,43,30.02,29.86,15,6,20,0.00
2013-3-29,53.8,45.3,39.7,36.1,30.6,27.7,68,56,41,30.05,29.98,17,6,21,0.00
2013-3-30,51.6,44.1,38.3,34.9,31.0,21.2,75,61,31,30.10,30.02,13,6,16,0.00
2013-3-31,52.2,43.0,31.6,37.3,29.3,19.3,79,59,38,30.13,29.76,22,6,22,0.00
2013-4-1,56.1,45.5,36.5,45.1,34.4,8.9,90,68,30,29.78,29.51,45,12,54,0.08
2013-4-2,39.4,34.9,30.6,12.7,9.2,5.5,41,34,26,29.94,29.78,35,15,42,0.00
2013-4-3,46.0,37.3,31.1,12.4,8.8,3.3,43,31,18,30.15,29.92,33,17,38,0.00
2013-4-4,54.0,39.9,30.7,33.0,17.8,5.8,68,42,18,30.29,30.06,26,7,28,0.00
2013-4-5,52.9,43.6,39.2,38.3,27.9,18.6,80,55,26,30.06,29.64,27,6,28,0.00
2013-4-6,45.5,38.2,31.8,29.0,9.1,-1.6,65,32,14,30.35,29.88,33,10,33,0.00
2013-4-7,48.7,42.3,32.5,38.6,30.7,23.6,76,64,38,30.35,30.02,59,7,59,0.00
2013-4-8,58.8,47.9,43.2,40.8,38.2,33.0,82,70,39,30.13,29.95,16,7,20,0.00
2013-4-9,70.0,48.3,42.8,47.4,40.6,37.8,87,77,36,30.11,29.87,28,6,34,0.16
2013-4-10,49.6,45.0,43.3,41.8,40.3,39.1,88,83,72,30.03,29.89,13,5,14,0.16
2013-4-11,48.7,44.1,42.4,42.2,37.8,29.9,90,79,58,30.16,29.84,49,7,50,0.00
2013-4-12,43.0,39.8,37.0,36.6,33.0,25.7,89,77,57,30.18,29.78,34,14,36,0.43
2013-4-13,43.5,39.8,35.8,39.0,34.6,31.4,88,82,68,29.94,29.75,16,6,19,0.00
2013-4-14,53.1,46.8,41.2,39.0,30.2,23.2,84,55,33,30.21,29.92,28,8,28,0.00
2013-4-15,48.7,42.8,36.7,38.8,33.1,27.0,81,69,47,30.41,30.21,17,8,17,0.00
2013-4-16,59.2,49.0,41.9,46.9,39.6,34.4,83,70,48,30.42,30.08,15,5,17,0.00
2013-4-17,63.7,54.8,46.4,49.7,36.9,25.2,74,53,24,30.34,30.07,22,7,26,0.00
2013-4-18,53.4,47.8,45.0,41.5,35.5,28.6,76,63,42,30.46,30.17,22,9,22,0.00
2013-4-19,69.3,56.7,46.9,56.9,50.5,41.7,91,80,58,30.17,29.69,13,4,15,0.00
2013-4-20,61.2,53.6,46.4,57.4,37.9,21.6,91,59,32,30.21,29.62,28,10,30,0.20
2013-4-21,48.2,41.7,35.4,31.3,21.7,14.5,64,46,27,30.69,30.21,25,8,30,0.00
2013-4-22,46.2,41.5,35.4,34.9,30.4,24.0,77,65,46,30.78,30.60,24,12,24,0.00
2013-4-23,42.8,41.6,40.1,39.7,36.6,28.8,90,83,63,30.60,30.11,21,8,22,0.00
2013-4-24,60.3,49.0,42.4,46.5,42.3,39.6,90,78,59,30.11,29.82,30,7,33,0.00
2013-4-25,63.3,53.0,45.1,50.6,37.8,24.1,84,60,23,30.27,29.85,29,7,29,0.00
2013-4-26,49.6,47.2,44.4,40.4,34.7,28.2,84,63,47,30.44,30.27,19,8,19,0.00
2013-4-27,51.4,47.7,41.7,42.0,38.7,33.9,87,72,51,30.44,30.31,14,5,15,0.00
2013-4-28,52.0,49.5,43.0,43.3,39.3,29.7,80,68,43,30.37,30.24,18,6,18,0.00
2013-4-29,59.7,51.8,47.8,45.7,39.4,21.2,87,65,25,30.30,30.21,17,5,17,0.00
2013-4-30,57.0,51.3,46.2,44.2,39.6,31.2,79,65,44,30.39,30.27,11,4,11,0.00
2013-5-1,54.3,50.0,42.6,44.9,41.1,32.3,86,71,52,30.51,30.39,10,4,10,0.00
2013-5-2,62.2,52.3,46.4,48.3,43.0,37.8,86,72,45,30.50,30.41,21,5,25,0.00
2013-5-3,51.8,47.7,44.8,42.2,39.0,37.3,82,72,60,30.54,30.38,23,7,23,0.00
2013-5-4,49.5,46.6,43.3,41.7,38.3,36.4,80,73,65,30.39,30.34,18,9,19,0.00
2013-5-5,49.8,46.2,39.6,42.8,39.2,35.7,87,77,68,30.35,30.29,14,7,14,0.00
2013-5-6,51.8,47.3,43.3,48.2,43.2,39.3,91,85,76,30.31,30.18,13,5,14,0.00
2013-5-7,64.8,55.3,48.9,52.8,49.0,45.5,89,80,62,30.21,30.12,13,4,16,0.00
2013-5-8,59.4,55.0,53.1,53.2,51.4,49.8,91,88,79,30.24,30.08,17,8,19,0.04
2013-5-9,58.5,55.1,53.4,55.8,52.3,50.3,92,90,87,30.08,29.91,16,6,18,0.75
2013-5-10,64.2,57.3,54.3,56.2,52.9,51.0,91,85,71,29.98,29.90,15,7,16,0.00
2013-5-11,69.8,61.4,57.2,58.1,54.9,51.4,90,80,63,29.94,29.72,12,4,13,0.00
2013-5-12,68.2,59.3,52.2,57.7,49.1,26.0,91,72,33,29.82,29.58,27,5,33,0.04
2013-5-13,59.2,51.4,43.9,30.2,26.5,22.8,57,39,26,30.04,29.82,24,8,26,0.00
2013-5-14,58.6,50.4,42.3,33.9,27.6,23.2,61,43,27,30.06,29.97,21,7,22,0.00
2013-5-15,59.7,52.1,41.7,50.0,39.0,27.1,81,62,41,30.07,29.69,26,7,26,0.00
2013-5-16,80.6,68.4,53.4,50.0,37.9,27.3,85,39,17,29.83,29.64,31,10,34,0.00
2013-5-17,65.8,56.9,52.7,46.9,40.2,35.4,77,55,34,30.23,29.83,21,6,22,0.00
2013-5-18,61.2,55.5,47.7,50.0,45.3,39.5,81,69,49,30.33,30.23,16,6,17,0.00
2013-5-19,59.7,53.3,48.2,51.8,47.6,44.1,90,82,57,30.37,30.25,20,6,21,0.04
2013-5-20,76.5,61.4,54.1,59.7,55.5,51.4,91,82,55,30.25,29.94,14,5,18,0.00
2013-5-21,62.4,55.9,50.9,57.3,52.5,48.1,91,88,76,30.07,29.91,21,7,21,0.16
2013-5-22,56.1,53.1,50.0,51.5,49.6,47.2,91,88,84,30.07,29.90,25,9,27,0.24
2013-5-23,75.0,59.0,52.7,63.6,54.9,50.1,92,87,66,29.95,29.84,16,6,17,0.00
2013-5-24,64.9,60.6,52.5,61.1,56.8,49.2,92,88,76,29.84,29.68,43,5,43,0.35
2013-5-25,52.9,48.7,42.3,49.4,44.6,35.9,90,86,77,29.82,20.92,74,10,78,0.08
2013-5-26,57.4,48.3,40.1,39.5,36.5,34.6,86,66,45,30.09,29.69,33,13,33,0.04
2013-5-27,71.1,58.5,45.1,42.6,35.0,27.2,74,46,20,30.19,30.08,25,8,26,0.00
2013-5-28,62.1,55.7,48.4,50.4,44.4,33.0,82,67,34,30.27,30.18,14,6,14,0.00
2013-5-29,64.8,57.1,54.3,58.5,53.5,49.9,91,88,76,30.22,30.00,35,5,46,0.83
2013-5-30,88.0,76.2,58.3,64.5,61.2,55.1,92,63,39,30.10,30.00,20,7,22,0.00
2013-5-31,89.4,77.9,71.1,63.6,60.9,56.8,71,57,37,30.11,29.95,17,4,17,0.00
2013-6-1,90.1,77.7,69.4,63.7,60.0,56.6,71,56,36,30.00,29.88,12,3,14,0.00
2013-6-2,80.6,71.3,65.1,62.9,60.0,56.7,82,68,49,29.90,29.76,12,3,12,0.00
2013-6-3,69.6,66.0,59.4,63.2,58.6,39.1,89,79,36,29.87,29.77,17,4,18,0.39
2013-6-4,70.2,62.6,53.6,45.0,40.3,37.6,58,45,33,30.11,29.83,23,8,25,0.00
2013-6-5,68.0,59.7,53.1,51.9,45.2,35.8,74,60,32,30.21,30.10,23,6,23,0.00
2013-6-6,62.8,59.7,56.3,54.4,50.8,45.9,85,73,59,30.21,30.12,17,7,17,0.00
2013-6-7,57.4,55.7,54.0,53.5,51.7,47.9,91,87,73,30.14,29.83,18,9,19,2.40
2013-6-8,78.1,63.9,53.6,60.2,54.9,50.9,91,75,52,30.01,29.60,21,8,27,0.31
2013-6-9,79.9,69.8,59.7,56.3,52.6,48.1,85,57,36,30.18,30.01,20,7,21,0.00
2013-6-10,68.4,61.3,57.4,55.4,53.5,51.4,91,76,57,30.24,30.04,16,7,18,0.16
2013-6-11,62.1,57.7,55.0,56.7,54.0,51.6,91,88,76,30.05,29.58,30,9,60,0.94
2013-6-12,69.1,61.3,55.8,55.6,52.8,50.4,90,75,53,29.83,29.57,27,8,75,0.00
2013-6-13,67.1,58.2,53.4,54.6,51.2,48.6,89,78,57,29.83,29.69,15,5,16,0.35
2013-6-14,67.8,59.0,52.0,56.3,50.1,44.2,89,74,51,29.78,29.65,22,5,27,1.10
2013-6-15,78.6,66.6,59.7,53.9,46.6,36.8,79,52,24,29.95,29.78,19,6,21,0.00
2013-6-16,77.2,67.2,58.6,60.2,50.4,43.3,80,56,34,29.95,29.74,17,4,17,0.00
2013-6-17,85.8,70.2,61.7,60.3,56.7,49.6,88,65,32,29.92,29.79,20,5,24,0.71
2013-6-18,67.8,62.2,58.3,59.5,56.4,52.7,88,82,61,29.97,29.90,17,5,19,0.31
2013-6-19,70.2,61.8,56.5,55.1,50.5,39.2,89,68,33,30.16,29.92,18,6,19,0.00
2013-6-20,68.4,62.9,54.1,58.8,52.4,44.4,80,69,47,30.29,30.16,12,5,12,0.00
2013-6-21,74.3,67.3,61.3,61.2,56.5,50.9,82,69,53,30.27,30.21,15,5,17,0.00
2013-6-22,84.6,72.4,65.1,59.3,56.3,53.6,75,58,38,30.24,30.14,14,3,17,0.00
2013-6-23,89.1,73.8,63.0,66.8,60.2,53.0,81,63,45,30.18,30.01,17,4,17,0.00
2013-6-24,93.4,80.1,67.6,68.4,66.0,62.3,88,65,40,30.04,29.89,38,8,40,0.71
2013-6-25,91.8,79.3,65.5,67.2,64.1,60.0,88,62,36,29.93,29.75,21,7,24,0.00
2013-6-26,82.2,71.0,63.3,66.7,64.3,59.9,91,80,53,29.88,29.73,15,4,15,0.59
2013-6-27,64.9,63.0,60.8,61.7,60.3,58.5,92,91,87,29.89,29.78,70,8,70,0.00
2013-6-28,73.4,66.7,61.2,65.9,63.0,58.8,92,88,74,29.79,29.52,45,6,46,0.35
2013-6-29,76.8,70.7,65.7,68.4,64.1,60.8,92,81,62,29.75,29.54,10,4,11,0.00
2013-6-30,78.3,71.7,67.5,66.3,64.5,62.3,89,78,66,29.96,29.75,10,2,11,0.00
2013-7-1,76.5,69.5,66.2,70.0,65.9,63.5,92,88,75,30.11,29.96,18,5,18,0.08
2013-7-2,78.1,67.1,60.1,67.7,62.4,56.8,91,85,69,30.23,30.10,10,3,12,0.00
2013-7-3,88.7,73.5,60.3,69.4,63.8,57.0,91,74,50,30.22,30.15,22,5,23,0.00
2013-7-4,92.8,81.7,74.3,71.2,69.0,65.5,85,67,45,30.22,30.11,19,6,23,0.00
2013-7-5,93.6,82.6,75.9,71.5,69.1,64.8,76,65,44,30.18,30.06,17,6,21,0.00
2013-7-6,90.7,84.0,77.4,71.7,66.8,58.6,78,58,40,30.09,29.99,21,8,25,0.00
2013-7-7,87.6,79.0,73.9,70.8,63.6,56.3,82,60,36,30.04,29.92,15,5,17,0.00
2013-7-8,82.6,72.8,65.3,71.3,66.4,60.5,89,81,66,30.08,20.02,18,6,54,0.00
2013-7-9,69.6,66.3,64.6,62.4,61.3,60.4,90,84,76,30.13,30.06,12,4,12,0.00
2013-7-10,80.1,70.6,65.7,70.5,66.0,61.4,92,86,67,30.10,29.82,20,6,20,0.00
2013-7-11,78.6,75.0,71.8,71.0,68.6,65.6,87,81,68,29.94,29.79,19,3,19,0.04
2013-7-12,72.5,69.2,66.0,67.2,58.8,54.2,89,70,57,30.22,29.94,16,7,19,0.00
2013-7-13,69.1,67.2,64.8,64.8,62.0,58.1,90,83,73,30.34,30.22,11,5,12,0.00
2013-7-14,87.4,74.6,67.5,71.1,68.0,64.3,92,81,48,30.32,30.22,34,5,35,0.00
2013-7-15,86.2,78.6,74.1,71.4,68.6,61.5,85,72,46,30.22,30.12,9,4,10,0.00
2013-7-16,89.1,78.2,73.6,70.6,66.0,62.7,78,67,46,30.19,30.12,10,5,12,0.00
2013-7-17,84.4,77.2,70.9,70.8,68.1,64.6,88,74,62,30.21,30.01,15,4,16,0.00
2013-7-18,86.9,78.1,73.6,71.0,68.9,65.7,86,74,52,30.04,29.97,17,6,17,0.00
2013-7-19,97.2,86.0,74.5,73.6,69.9,64.1,85,61,35,29.97,29.73,25,6,31,0.00
2013-7-20,92.8,84.0,78.3,72.6,68.8,61.5,79,61,44,29.82,29.66,24,6,26,0.00
2013-7-21,78.6,71.6,69.3,65.7,61.8,57.7,88,72,55,30.02,29.82,13,6,14,0.00
2013-7-22,70.7,69.0,67.1,66.3,64.7,62.8,91,87,78,30.05,29.91,17,7,17,0.00
2013-7-23,79.9,70.6,68.2,73.3,67.6,65.6,93,90,73,29.91,29.56,18,5,18,0.71
2013-7-24,85.5,75.4,66.9,71.0,63.6,50.4,93,69,47,29.97,29.60,16,5,18,0.00
2013-7-25,67.6,61.8,59.4,58.2,52.9,48.4,90,74,55,30.12,29.96,36,7,38,0.20
2013-7-26,70.2,64.7,60.6,64.6,60.7,57.7,91,87,76,30.07,29.93,52,11,52,0.63
2013-7-27,75.0,69.3,62.1,65.1,61.2,56.8,85,76,57,30.08,30.00,12,4,13,0.00
2013-7-28,74.3,68.3,65.5,65.6,64.0,62.1,91,86,73,30.04,29.99,13,3,13,0.00
2013-7-29,72.0,68.4,65.8,67.3,64.8,62.8,92,88,76,30.06,29.99,19,5,19,0.08
2013-7-30,79.5,69.7,64.0,65.1,60.8,52.6,92,75,41,30.11,30.04,26,6,28,0.00
2013-7-31,77.2,69.8,63.9,64.2,58.9,51.8,83,69,44,30.15,30.07,11,6,12,0.00
2013-8-1,76.8,70.9,66.9,64.9,62.0,57.7,83,74,55,30.07,29.90,17,5,19,0.00
2013-8-2,82.6,72.1,64.2,65.9,60.1,52.5,90,69,37,29.91,29.81,21,5,23,0.20
2013-8-3,79.2,72.8,68.0,62.3,59.0,55.7,79,63,46,29.89,29.80,21,6,21,0.00
2013-8-4,79.9,68.0,61.5,61.9,55.6,49.9,87,66,37,29.89,29.79,21,5,29,0.20
2013-8-5,74.8,65.5,57.9,53.0,44.4,35.0,76,50,25,30.06,29.88,22,8,24,0.00
2013-8-6,69.4,64.7,54.9,60.7,50.5,40.4,78,61,47,30.18,30.06,12,6,12,0.00
2013-8-7,71.1,67.2,61.3,60.8,57.1,53.6,81,70,59,30.21,30.13,20,7,20,0.00
2013-8-8,78.8,70.2,65.3,66.5,62.4,54.2,87,76,64,30.16,30.03,12,3,12,0.00
2013-8-9,75.0,70.3,66.2,71.7,66.9,63.6,93,89,85,30.05,29.76,24,5,32,1.18
2013-8-10,83.3,75.2,66.7,70.1,58.9,49.3,90,60,35,30.02,29.81,24,8,25,0.00
2013-8-11,77.7,67.0,57.9,58.6,52.5,44.5,80,61,37,30.10,30.02,16,5,18,0.00
2013-8-12,80.1,70.3,61.7,61.9,56.2,48.2,83,63,34,30.05,29.94,13,4,15,0.00
2013-8-13,69.3,66.3,63.9,63.3,61.2,59.1,89,84,78,29.95,29.70,10,3,11,0.00
2013-8-14,74.5,67.8,62.4,61.6,51.6,46.6,87,58,39,29.97,29.67,26,9,29,0.00
2013-8-15,76.8,67.4,57.9,52.1,47.1,41.4,72,50,31,30.13,29.97,18,7,21,0.00
2013-8-16,79.9,68.4,59.9,56.3,51.0,44.4,70,56,32,30.21,30.12,20,6,20,0.00
2013-8-17,72.0,65.6,60.8,59.6,55.9,52.0,85,71,54,30.30,30.21,13,5,14,0.00
2013-8-18,70.3,66.2,61.2,60.9,57.8,55.1,85,75,64,30.29,30.10,11,2,12,0.00
2013-8-19,81.5,72.7,63.0,58.6,56.3,51.3,80,58,37,30.11,29.97,16,7,18,0.00
2013-8-20,78.3,71.1,66.9,63.2,59.7,57.0,84,68,53,30.10,29.99,13,5,13,0.00
2013-8-21,79.5,72.3,64.4,63.6,60.5,58.4,81,67,51,30.17,30.04,10,3,11,0.00
2013-8-22,84.0,74.2,68.7,66.9,62.9,59.9,85,69,50,30.05,29.84,9,3,16,0.00
2013-8-23,76.5,69.7,63.3,67.0,57.9,49.6,84,67,43,30.14,29.83,17,6,19,0.00
2013-8-24,69.1,63.4,56.8,55.1,47.7,40.1,70,57,37,30.34,30.14,14,4,17,0.00
2013-8-25,71.1,65.9,56.8,57.8,51.2,42.9,73,60,47,30.38,30.21,11,4,13,0.00
2013-8-26,81.7,72.6,64.2,63.3,58.5,53.8,78,62,49,30.21,29.89,21,6,26,0.00
2013-8-27,73.8,68.0,65.1,65.6,62.5,59.1,90,83,67,29.91,29.85,12,4,12,0.00
2013-8-28,65.7,63.2,60.4,62.3,60.3,57.8,92,90,81,30.00,29.88,40,6,0,0.00
2013-8-29,65.7,63.5,62.2,62.4,59.0,54.9,92,85,77,30.09,29.98,18,6,0,0.00
2013-8-30,79.5,69.2,62.2,65.5,59.8,55.6,86,73,56,30.04,29.84,11,3,0,0.00
2013-8-31,75.4,71.0,68.4,70.0,65.9,63.5,89,84,75,29.86,29.81,15,3,0,0.00
2013-9-1,74.5,70.5,66.9,68.1,65.8,62.3,92,85,72,29.91,29.81,14,3,0,0.00
2013-9-2,72.1,68.7,66.2,68.4,65.3,63.8,92,89,78,29.90,29.74,10,3,0,0.16
2013-9-3,77.4,72.0,67.5,69.0,64.4,54.4,92,77,60,29.82,29.71,13,3,0,0.00
2013-9-4,80.6,70.9,61.3,55.7,53.0,49.0,77,55,35,29.93,29.81,19,8,0,0.00
2013-9-5,68.5,63.2,54.9,59.1,53.5,44.3,86,71,57,30.15,29.87,15,6,0,0.00
2013-9-6,64.6,58.3,47.8,50.5,41.2,35.5,73,54,35,30.26,30.10,11,5,0,0.00
2013-9-7,79.2,66.5,54.5,54.0,46.2,41.6,65,49,30,30.10,29.87,11,4,0,0.00
2013-9-8,73.4,65.2,53.6,56.9,48.4,36.5,79,56,33,30.10,29.76,27,8,0,0.00
2013-9-9,68.2,58.0,46.9,51.4,43.4,36.3,75,59,38,30.25,30.10,13,5,0,0.00
2013-9-10,72.7,65.7,59.4,65.3,58.0,48.1,90,76,65,30.18,30.06,15,2,0,0.04
2013-9-11,93.0,76.6,62.4,72.0,65.9,59.4,92,72,38,30.09,29.96,16,3,0,0.00
2013-9-12,81.1,71.4,64.9,66.6,63.7,60.2,91,78,51,29.99,29.69,11,3,0,0.71
2013-9-13,68.9,65.0,59.9,64.2,60.7,52.3,92,86,76,29.75,29.59,41,4,0,0.16
2013-9-14,66.6,61.1,54.3,52.2,50.4,48.8,84,68,54,30.06,29.75,15,7,0,0.00
2013-9-15,65.1,59.5,50.7,55.5,49.1,42.8,86,69,45,30.18,30.06,10,5,0,0.00
2013-9-16,67.1,59.7,49.8,50.3,46.2,35.8,72,61,49,30.25,30.02,16,6,0,0.00
2013-9-17,58.6,51.5,42.3,42.5,36.2,30.7,73,56,37,30.43,30.25,13,5,0,0.00
2013-9-18,68.2,58.3,48.4,54.0,43.6,39.0,73,59,38,30.33,30.15,11,5,0,0.00
2013-9-19,66.6,59.7,51.1,55.1,50.0,45.1,85,71,51,30.15,30.06,9,3,0,0.00
2013-9-20,65.3,60.5,53.8,57.4,53.7,49.4,87,78,66,30.12,30.03,8,4,0,0.00
2013-9-21,71.6,62.9,57.2,59.7,56.9,53.9,91,81,61,30.05,29.76,14,6,0,0.00
2013-9-22,71.2,64.2,54.3,63.1,53.4,42.8,88,70,41,29.82,29.63,18,8,0,0.20
2013-9-23,61.3,53.7,47.7,42.4,38.6,36.4,70,57,44,30.00,29.82,21,9,0,0.00
2013-9-24,64.9,53.3,45.0,44.2,38.9,36.7,77,60,37,29.99,29.84,22,7,0,0.00
2013-9-25,60.6,54.7,47.3,46.8,43.7,40.8,82,67,50,30.00,29.88,16,5,0,0.00
2013-9-26,61.5,57.0,53.4,49.4,46.2,42.4,82,68,52,30.14,30.00,15,5,0,0.00
2013-9-27,63.9,58.8,55.2,51.2,48.2,46.3,77,68,56,30.26,30.14,17,5,0,0.00
2013-9-28,67.6,58.0,51.8,55.1,51.2,47.4,91,79,57,30.35,30.26,14,6,0,0.00
2013-9-29,59.9,55.0,47.7,53.5,49.6,45.2,92,82,68,30.28,30.14,31,10,0,0.00
2013-9-30,61.5,53.8,45.9,52.5,48.8,43.1,91,83,66,30.13,29.98,17,8,0,0.00
2013-10-1,72.0,60.0,49.6,55.9,50.4,46.2,90,72,44,29.98,29.88,11,4,0,0.00
2013-10-2,79.7,69.3,59.2,56.3,54.1,50.8,78,60,43,29.96,29.84,19,7,0,0.00
2013-10-3,72.7,64.6,57.4,56.5,50.9,45.3,80,62,39,30.10,29.96,13,5,0,0.00
2013-10-4,63.9,59.8,55.2,55.9,51.9,47.2,88,76,62,30.10,30.05,15,3,0,0.08
2013-10-5,65.1,60.5,57.7,57.2,54.7,51.9,90,81,65,30.14,30.07,12,4,0,0.00
2013-10-6,59.7,57.7,55.0,56.1,53.1,50.7,89,85,78,30.24,30.13,23,11,0,0.12
2013-10-7,71.8,65.0,59.5,64.6,60.2,52.9,91,85,71,30.15,29.84,19,10,0,0.04
2013-10-8,65.7,58.9,50.9,53.1,41.9,36.8,72,55,37,30.38,29.90,16,8,0,0.00
2013-10-9,58.3,52.8,46.2,45.5,41.6,38.4,86,66,49,30.49,30.37,19,8,0,0.00
2013-10-10,58.8,52.7,45.3,50.9,46.8,41.4,88,81,66,30.37,30.19,13,6,0,0.00
2013-10-11,64.6,57.0,52.2,52.8,48.3,34.4,91,74,33,30.19,30.12,29,7,0,0.00
2013-10-12,59.5,56.2,52.0,54.2,50.2,46.5,88,81,71,30.41,30.16,20,7,0,0.00
2013-10-13,57.6,52.9,45.7,47.2,44.1,40.5,87,72,56,30.46,30.38,17,7,0,0.00
2013-10-14,58.1,51.6,40.5,50.2,43.0,36.8,87,73,53,30.41,30.27,11,5,0,0.00
2013-10-15,59.7,56.7,50.0,53.4,49.6,45.4,84,77,63,30.28,30.21,13,6,0,0.00
2013-10-16,60.6,56.6,50.9,53.1,51.3,47.8,90,83,74,30.20,29.92,17,4,0,0.00
2013-10-17,71.2,61.9,55.4,57.5,55.1,52.2,90,79,58,29.93,29.74,16,4,0,0.00
2013-10-18,67.1,62.1,55.2,59.1,48.1,35.4,89,62,40,29.92,29.63,21,8,0,0.04
2013-10-19,61.7,56.3,48.4,50.4,42.7,35.5,70,60,48,29.99,29.77,15,6,0,0.00
2013-10-20,61.5,55.6,49.1,50.7,37.9,29.2,84,54,31,30.02,29.71,24,9,0,0.00
2013-10-21,65.5,54.4,45.1,51.1,39.1,31.4,76,57,35,30.13,30.02,12,5,0,0.00
2013-10-22,65.7,57.8,50.2,51.2,45.3,33.9,81,64,46,30.02,29.72,17,6,0,0.00
2013-10-23,53.2,48.1,40.5,34.3,30.6,26.0,73,52,36,29.81,29.60,13,4,0,0.00
2013-10-24,53.2,47.0,40.8,32.7,26.4,20.6,67,46,30,29.89,29.63,26,9,0,0.00
2013-10-25,50.2,43.2,37.0,30.9,26.0,22.3,71,52,35,30.15,29.89,20,7,0,0.00
2013-10-26,55.6,46.4,36.9,35.0,28.6,23.1,72,51,29,30.15,29.89,19,6,0,0.00
2013-10-27,54.1,48.9,43.0,38.5,31.6,25.2,77,53,34,30.07,29.83,22,8,0,0.04
2013-10-28,58.6,47.4,39.0,31.0,27.9,20.1,68,48,32,30.35,30.06,26,8,0,0.00
2013-10-29,46.8,39.9,33.1,32.5,26.9,20.1,79,60,46,30.44,30.35,12,5,0,0.00
2013-10-30,47.5,42.5,38.5,38.6,35.4,31.2,89,76,65,30.37,30.21,10,3,0,0.04
2013-10-31,62.1,51.7,40.1,56.0,47.2,36.3,90,85,76,30.25,29.83,11,5,0,0.04
2013-11-1,69.3,63.5,57.6,60.0,54.4,50.5,89,73,56,29.83,29.48,21,6,0,0.00
2013-11-2,61.5,55.9,52.2,51.3,45.1,40.2,75,67,50,29.74,29.61,19,4,0,0.00
2013-11-3,52.9,42.6,33.1,44.8,30.2,14.2,83,63,36,30.41,29.72,16,6,0,0.00
2013-11-4,40.3,34.6,30.0,21.9,17.6,14.2,65,50,35,30.70,30.41,16,6,0,0.00
2013-11-5,47.3,40.4,30.0,35.8,26.8,18.4,67,58,39,30.72,30.53,15,7,0,0.00
2013-11-6,57.6,51.2,44.8,48.9,41.2,32.6,83,69,54,30.53,30.05,11,4,0,0.00
2013-11-7,66.9,55.2,43.0,55.1,48.0,31.3,86,77,59,30.06,29.68,15,6,0,0.24
2013-11-8,48.4,40.6,34.9,31.8,24.5,18.9,74,53,40,30.08,29.81,28,9,0,0.00
2013-11-9,44.8,40.4,34.0,30.1,20.6,17.2,56,45,33,30.20,30.06,23,8,0,0.00
2013-11-10,55.6,48.3,43.7,40.3,34.4,28.7,79,59,43,30.06,29.74,21,6,0,0.04
2013-11-11,52.5,46.1,40.1,31.3,25.5,20.4,58,45,30,30.10,29.83,23,9,0,0.00
2013-11-12,49.8,36.2,28.0,37.4,21.7,12.9,83,56,43,30.18,29.90,25,9,0,0.00
2013-11-13,36.0,30.2,25.2,16.0,11.3,7.8,59,45,33,30.27,30.17,25,10,0,0.00
2013-11-14,50.7,41.4,32.0,27.1,18.3,14.7,53,40,28,30.17,30.04,26,8,0,0.00
2013-11-15,56.8,47.5,38.8,38.1,25.4,14.0,57,42,24,30.21,30.12,11,4,0,0.00
2013-11-16,53.4,47.4,44.4,36.8,29.5,23.5,66,50,32,30.31,30.19,13,5,0,0.00
2013-11-23,41.2,35.8,31.3,20.9,15.4,9.2,60,44,31,29.83,29.76,30,14,0,0.12
2013-11-24,31.3,25.0,21.0,13.3,1.5,-5.9,61,37,25,30.15,29.76,36,18,0,0.00
2013-11-25,33.3,26.1,17.8,16.7,-1.7,-11.8,51,30,15,30.36,30.15,23,10,0,0.00
2013-11-26,46.6,38.2,31.8,43.2,22.4,13.6,88,54,41,30.34,30.06,21,7,0,0.00
2013-11-27,57.9,50.4,39.4,54.6,46.5,30.2,91,87,68,30.06,29.22,31,16,0,1.10
2013-11-28,39.4,32.6,26.6,30.6,14.2,2.6,73,47,29,30.40,29.42,31,13,0,0.00
2013-11-29,32.0,26.7,21.6,13.4,6.9,-0.1,59,43,29,30.73,30.41,14,6,0,0.00
2013-11-30,35.8,27.3,19.2,24.1,13.2,5.5,62,55,47,30.78,30.52,19,8,0,0.00
2013-12-1,45.5,40.1,35.8,41.1,32.2,22.5,89,74,58,30.52,30.03,23,13,0,0.20
2013-12-2,39.0,37.5,36.3,35.7,34.4,33.6,90,89,85,30.02,29.93,11,6,0,0.00
2013-12-3,48.0,39.3,35.4,34.3,32.4,27.8,90,77,55,29.93,29.85,12,5,0,0.00
2013-12-4,41.7,37.2,33.4,28.2,25.1,21.8,78,63,45,30.20,29.92,15,7,0,0.00
2013-12-5,47.5,43.5,35.6,44.4,38.0,25.0,89,81,64,30.22,30.03,14,5,0,0.16
2013-12-6,54.9,49.2,46.4,52.3,42.1,30.1,91,78,52,30.04,29.87,10,6,0,0.00
2013-12-7,46.2,36.3,31.3,34.9,26.6,15.4,84,68,51,30.39,30.04,12,6,0,0.75
2013-12-8,31.1,29.6,28.2,16.7,14.1,11.8,61,52,47,30.60,30.39,7,4,0,0.00
2013-12-9,43.2,31.9,28.2,40.4,19.1,11.0,90,61,45,30.57,29.87,12,4,0,0.43
2013-12-10,36.7,33.4,28.8,32.6,26.7,12.9,90,77,51,29.94,29.82,22,8,0,0.00
2013-12-11,28.9,26.7,25.0,17.2,14.0,10.6,64,58,47,30.14,29.90,26,12,0,0.00
2013-12-12,27.0,23.4,18.5,16.1,4.7,-3.9,74,47,28,30.26,30.13,21,9,0,0.00
2013-12-13,28.4,22.0,18.7,10.8,5.7,-3.6,58,49,30,30.30,29.98,19,11,0,0.00
2013-12-14,21.6,16.7,12.0,16.5,3.8,-6.0,81,57,43,30.60,30.31,14,7,0,0.00
2013-12-15,35.2,30.1,23.7,32.9,26.2,18.1,91,85,74,30.48,29.65,44,27,0,0.98
2013-12-16,37.8,28.8,21.6,35.0,18.0,5.0,91,67,39,30.12,29.37,55,14,0,0.00
2013-12-17,22.8,19.8,13.5,18.9,8.3,-2.1,86,62,46,30.28,29.93,18,8,0,0.00
2013-12-18,30.9,25.8,17.1,19.1,17.2,12.3,85,70,57,30.04,29.87,18,9,0,0.00
2013-12-19,41.9,33.1,27.1,22.2,20.0,17.5,68,59,44,30.08,29.96,14,8,0,0.00
2013-12-20,51.3,42.3,37.6,37.4,29.9,21.8,73,62,44,30.12,29.92,13,5,0,0.00
2013-12-21,54.1,47.0,43.7,43.8,38.4,32.2,81,72,61,29.97,29.88,11,4,0,0.00
2013-12-22,54.9,49.2,35.2,44.8,42.0,32.9,91,76,66,30.02,29.88,7,3,0,0.00
2013-12-23,36.0,34.2,32.0,33.6,31.8,29.7,91,91,91,30.09,29.97,21,6,0,0.35
2013-12-24,37.4,33.0,29.1,35.0,20.5,11.4,91,61,43,30.17,30.04,17,7,0,0.00
2013-12-25,28.8,19.6,13.3,11.8,3.9,-3.5,59,50,42,30.47,30.18,21,11,0,0.00
2013-12-26,36.5,30.1,16.9,28.2,21.4,-2.7,79,70,40,30.49,30.15,21,10,0,0.00
2013-12-27,33.4,29.7,26.2,21.6,18.0,16.2,78,62,49,30.26,30.17,19,10,0,0.00
2013-12-28,44.2,34.1,30.4,25.9,22.5,16.7,70,63,46,30.21,30.03,17,6,0,0.00
2013-12-29,47.5,42.1,37.9,39.5,31.0,23.3,91,67,39,30.03,29.41,21,5,0,0.79
2013-12-30,39.6,36.8,34.9,36.5,32.5,31.3,90,84,72,29.79,29.38,18,9,0,0.00
2013-12-31,44.1,35.7,24.4,31.9,18.1,7.3,71,49,38,30.12,29.81,22,11,0,0.00
2014-1-1,26.8,22.8,15.3,10.2,4.1,-3.8,56,44,37,30.39,30.12,23,9,0,0.00
2014-1-2,24.3,19.2,7.3,19.9,13.0,2.8,85,77,49,30.37,29.86,16,8,0,0.00